Time;durP1;ratioP1;P1;durP2;ratioP2;P2;SDS_P1;SDS_P2;PMS_P1;PMS_P2;Temp;Humidity;BMP_temperature;BMP_pressure;BME280_temperature;BME280_humidity;BME280_pressure;Samples;Min_cycle;Max_cycle;Signal;HPM_P1;HPM_P2
2023/01/05 00:01:43;;;;;;;7.13;2.30;;;8.90;99.90;;;;;;4985004;28;20223;-80
2023/01/05 00:04:10;;;;;;;10.03;2.87;;;8.80;99.90;;;;;;4958823;28;20315;-80
2023/01/05 00:06:38;;;;;;;15.97;2.57;;;8.80;99.90;;;;;;4973620;28;20238;-80
2023/01/05 00:09:06;;;;;;;9.97;2.07;;;8.80;99.90;;;;;;4989506;28;20259;-80
2023/01/05 00:22:41;;;;;;;10.37;2.33;;;8.70;99.90;;;;;;4986670;28;20230;-79
2023/01/05 00:25:10;;;;;;;13.00;3.00;;;8.80;99.90;;;;;;4972584;28;20231;-80
2023/01/05 00:27:37;;;;;;;8.80;1.93;;;8.70;99.90;;;;;;4985771;28;20635;-80
2023/01/05 00:30:06;;;;;;;11.83;1.90;;;8.70;99.90;;;;;;4972432;28;20274;-80
2023/01/05 00:32:33;;;;;;;9.23;2.10;;;8.70;99.90;;;;;;4987307;28;20232;-80
2023/01/05 00:35:01;;;;;;;10.13;2.33;;;8.70;99.90;;;;;;4986486;28;20272;-81
2023/01/05 00:37:31;;;;;;;11.50;2.13;;;8.70;99.90;;;;;;4968078;28;20238;-81
2023/01/05 00:39:58;;;;;;;9.70;2.50;;;8.70;99.90;;;;;;4975543;28;20243;-80
2023/01/05 00:42:26;;;;;;;10.33;2.13;;;8.70;99.90;;;;;;4965402;28;20254;-81
2023/01/05 00:44:52;;;;;;;14.50;2.37;;;8.70;99.90;;;;;;4977999;28;20318;-80
2023/01/05 00:47:20;;;;;;;10.97;2.40;;;8.70;99.90;;;;;;4965556;28;20858;-80
2023/01/05 00:49:48;;;;;;;8.73;2.30;;;8.70;99.90;;;;;;4970283;28;20602;-80
2023/01/05 00:52:15;;;;;;;10.93;2.23;;;8.70;99.90;;;;;;4968107;28;20235;-80
2023/01/05 00:54:42;;;;;;;6.87;2.37;;;8.70;99.90;;;;;;4973050;28;20241;-80
2023/01/05 00:57:11;;;;;;;11.70;2.27;;;8.70;99.90;;;;;;4972954;28;20221;-80
2023/01/05 00:59:37;;;;;;;12.27;2.57;;;8.70;99.90;;;;;;4966062;28;20320;-81
2023/01/05 01:02:04;;;;;;;11.10;2.33;;;8.70;99.90;;;;;;4986720;28;20640;-80
2023/01/05 01:04:34;;;;;;;12.60;2.40;;;8.70;99.90;;;;;;4976001;28;20311;-80
2023/01/05 01:07:00;;;;;;;10.93;2.23;;;8.70;99.90;;;;;;4988646;28;20240;-80
2023/01/05 01:09:27;;;;;;;11.00;2.70;;;8.70;99.90;;;;;;4967626;28;20319;-79
2023/01/05 01:11:54;;;;;;;12.63;2.60;;;8.70;99.90;;;;;;4965071;28;20229;-81
2023/01/05 01:14:21;;;;;;;11.63;2.67;;;8.70;99.90;;;;;;4966023;28;20228;-81
2023/01/05 01:16:49;;;;;;;8.90;1.90;;;8.70;99.90;;;;;;4966732;28;20234;-80
2023/01/05 01:19:18;;;;;;;8.33;2.27;;;8.60;99.90;;;;;;4974353;28;20942;-80
2023/01/05 01:21:46;;;;;;;10.87;2.20;;;8.70;99.90;;;;;;4962839;28;20233;-80
2023/01/05 01:24:16;;;;;;;9.17;2.13;;;8.70;99.90;;;;;;4970212;28;20263;-80
2023/01/05 01:26:43;;;;;;;5.97;1.77;;;8.70;99.90;;;;;;4972849;28;20222;-80
2023/01/05 01:29:09;;;;;;;11.03;2.53;;;8.70;99.90;;;;;;4983934;28;20264;-80
2023/01/05 01:31:36;;;;;;;9.90;2.33;;;8.70;99.90;;;;;;4970492;28;20328;-81
2023/01/05 01:34:03;;;;;;;8.43;1.90;;;8.60;99.90;;;;;;4979037;28;20308;-81
2023/01/05 01:36:30;;;;;;;10.57;1.70;;;8.60;99.90;;;;;;4964929;28;20223;-80
2023/01/05 01:38:58;;;;;;;9.60;2.27;;;8.60;99.90;;;;;;4968847;28;20233;-80
2023/01/05 01:41:26;;;;;;;10.53;2.07;;;8.60;99.90;;;;;;4975348;28;20256;-81
2023/01/05 01:43:54;;;;;;;7.13;1.87;;;8.60;99.90;;;;;;4967263;28;20228;-80
2023/01/05 01:46:25;;;;;;;8.77;2.67;;;8.60;99.90;;;;;;4970602;28;20278;-81
2023/01/05 01:48:56;;;;;;;8.90;2.07;;;8.60;99.90;;;;;;4967410;28;20237;-80
2023/01/05 01:51:26;;;;;;;9.40;2.10;;;8.60;99.90;;;;;;4982368;28;20233;-79
2023/01/05 01:53:55;;;;;;;5.60;1.83;;;8.60;99.90;;;;;;4979110;28;20219;-80
2023/01/05 01:56:26;;;;;;;8.13;2.23;;;8.60;99.90;;;;;;4964102;28;20252;-79
2023/01/05 01:58:54;;;;;;;8.73;2.03;;;8.60;99.90;;;;;;4992705;28;20305;-79
2023/01/05 02:01:21;;;;;;;6.43;1.70;;;8.60;99.90;;;;;;4969818;28;20223;-79
2023/01/05 02:03:48;;;;;;;7.07;1.70;;;8.60;99.90;;;;;;4968849;28;20302;-79
2023/01/05 02:06:15;;;;;;;9.50;1.93;;;8.50;99.90;;;;;;4968230;28;20838;-79
2023/01/05 02:08:42;;;;;;;6.80;2.10;;;8.50;99.90;;;;;;4982263;28;20308;-79
2023/01/05 02:11:27;;;;;;;6.20;1.70;;;8.50;99.90;;;;;;4982076;28;20222;-79
2023/01/05 02:14:09;;;;;;;8.40;2.37;;;8.50;99.90;;;;;;4962295;28;20228;-79
2023/01/05 02:16:46;;;;;;;5.23;1.40;;;8.50;99.90;;;;;;4963619;28;20303;-79
2023/01/05 02:19:47;;;;;;;6.47;1.53;;;8.40;99.90;;;;;;4970608;28;20270;-79
2023/01/05 02:22:34;;;;;;;6.23;1.70;;;8.40;99.90;;;;;;4966730;28;20320;-79
2023/01/05 02:25:33;;;;;;;5.93;1.20;;;8.40;99.90;;;;;;4976951;28;20244;-80
2023/01/05 02:28:14;;;;;;;8.97;2.00;;;8.40;99.90;;;;;;4963646;28;20807;-79
2023/01/05 02:31:10;;;;;;;6.70;1.80;;;8.40;99.90;;;;;;4966557;28;20569;-80
2023/01/05 02:33:59;;;;;;;7.17;1.73;;;8.40;99.90;;;;;;4981757;28;22053;-80
2023/01/05 02:36:30;;;;;;;5.10;1.67;;;8.30;99.90;;;;;;4968040;28;20226;-80
2023/01/05 02:39:08;;;;;;;8.57;1.60;;;8.30;99.90;;;;;;4964554;28;20225;-81
2023/01/05 02:41:38;;;;;;;6.23;1.50;;;8.30;99.90;;;;;;4969771;28;20236;-80
2023/01/05 02:44:08;;;;;;;7.80;1.87;;;8.30;99.90;;;;;;4977830;28;20228;-80
2023/01/05 02:46:36;;;;;;;9.67;1.97;;;8.20;99.90;;;;;;4964973;28;20743;-80
2023/01/05 02:49:05;;;;;;;5.43;1.37;;;8.20;99.90;;;;;;4965701;28;20233;-80
2023/01/05 02:51:36;;;;;;;7.43;2.43;;;8.20;99.90;;;;;;4983710;28;21970;-80
2023/01/05 02:54:08;;;;;;;7.73;1.87;;;8.10;99.90;;;;;;4965600;28;20757;-81
2023/01/05 02:56:40;;;;;;;7.50;1.80;;;8.10;99.90;;;;;;4966940;28;20223;-80
2023/01/05 02:59:12;;;;;;;9.87;1.83;;;8.10;99.90;;;;;;4964845;28;20229;-81
2023/01/05 03:01:47;;;;;;;6.97;1.50;;;8.00;99.90;;;;;;4967288;28;20844;-80
2023/01/05 03:04:20;;;;;;;8.30;1.83;;;8.00;99.90;;;;;;4967010;28;20233;-80
2023/01/05 03:06:55;;;;;;;6.07;1.80;;;8.00;99.90;;;;;;4968019;28;20236;-80
2023/01/05 03:09:26;;;;;;;7.47;1.57;;;8.00;99.90;;;;;;4973030;28;20292;-80
2023/01/05 03:14:48;;;;;;;6.90;1.30;;;7.90;99.90;;;;;;4984150;28;20229;-80
2023/01/05 03:17:23;;;;;;;7.50;1.70;;;7.90;99.90;;;;;;4975226;28;20856;-80
2023/01/05 03:19:51;;;;;;;8.77;1.83;;;7.90;99.90;;;;;;4969316;28;20251;-80
2023/01/05 03:44:09;;;;;;;5.00;1.07;;;7.80;99.90;;;;;;4978123;28;20218;-80
2023/01/05 03:46:39;;;;;;;4.33;1.47;;;7.80;99.90;;;;;;4970235;28;20235;-80
2023/01/05 03:49:07;;;;;;;7.67;1.13;;;7.80;99.90;;;;;;4971958;28;20578;-81
2023/01/05 03:51:34;;;;;;;6.80;1.30;;;7.70;99.90;;;;;;4984964;28;20297;-80
2023/01/05 03:54:01;;;;;;;5.50;1.60;;;7.70;99.90;;;;;;4973691;28;20518;-80
2023/01/05 03:56:30;;;;;;;7.03;1.67;;;7.80;99.90;;;;;;4985332;28;20218;-80
2023/01/05 03:58:58;;;;;;;6.13;1.10;;;7.70;99.90;;;;;;4994093;28;20253;-80
2023/01/05 04:01:26;;;;;;;6.57;1.27;;;7.80;99.90;;;;;;4968083;28;20227;-79
2023/01/05 04:03:53;;;;;;;6.53;1.80;;;7.80;99.90;;;;;;4967170;28;20266;-79
2023/01/05 04:06:21;;;;;;;6.10;1.30;;;7.80;99.90;;;;;;4973077;28;20268;-79
2023/01/05 04:08:48;;;;;;;8.90;1.80;;;7.80;99.90;;;;;;4969972;28;21027;-79
2023/01/05 04:11:16;;;;;;;8.83;1.97;;;7.80;99.90;;;;;;4970509;28;20662;-79
2023/01/05 04:13:49;;;;;;;4.97;1.50;;;7.80;99.90;;;;;;4971329;28;20659;-80
2023/01/05 04:16:16;;;;;;;9.23;1.70;;;7.80;99.90;;;;;;4969252;28;20228;-79
2023/01/05 04:18:43;;;;;;;6.97;1.80;;;7.80;99.90;;;;;;4981595;28;20797;-79
2023/01/05 04:21:09;;;;;;;5.90;1.83;;;7.70;99.90;;;;;;4966510;28;20228;-79
2023/01/05 04:23:39;;;;;;;6.87;1.50;;;7.70;99.90;;;;;;4963209;28;20237;-79
2023/01/05 04:26:06;;;;;;;10.10;1.63;;;7.70;99.90;;;;;;4973126;28;20694;-78
2023/01/05 04:28:33;;;;;;;5.90;1.87;;;7.70;99.90;;;;;;4971132;28;20230;-79
2023/01/05 04:31:01;;;;;;;7.47;1.90;;;7.70;99.90;;;;;;4973992;28;20216;-79
2023/01/05 04:33:29;;;;;;;7.53;1.83;;;7.60;99.90;;;;;;4967656;28;20229;-79
2023/01/05 04:35:56;;;;;;;11.50;2.00;;;7.60;99.90;;;;;;4966634;28;20336;-78
2023/01/05 04:38:27;;;;;;;9.90;1.47;;;7.50;99.90;;;;;;4969557;28;20242;-79
2023/01/05 04:40:56;;;;;;;7.60;1.70;;;7.50;99.90;;;;;;4971501;28;20225;-78
2023/01/05 04:43:25;;;;;;;8.87;1.80;;;7.50;99.90;;;;;;4965167;28;20817;-79
2023/01/05 04:45:52;;;;;;;8.57;1.87;;;7.50;99.90;;;;;;4969532;28;20483;-79
2023/01/05 04:48:19;;;;;;;8.03;2.00;;;7.40;99.90;;;;;;4965607;28;20227;-79
2023/01/05 04:50:52;;;;;;;8.30;2.07;;;7.40;99.90;;;;;;4965188;28;20236;-80
2023/01/05 04:53:19;;;;;;;10.40;1.70;;;7.30;99.90;;;;;;4979082;28;20227;-79
2023/01/05 04:55:45;;;;;;;8.70;1.87;;;7.30;99.90;;;;;;4968135;28;20243;-79
2023/01/05 04:58:14;;;;;;;7.50;1.83;;;7.20;99.90;;;;;;4967915;28;20316;-80
2023/01/05 05:00:41;;;;;;;10.57;2.03;;;7.20;99.90;;;;;;4972995;28;20372;-80
2023/01/05 05:03:08;;;;;;;9.23;1.70;;;7.20;99.90;;;;;;4959784;28;20593;-80
2023/01/05 05:05:35;;;;;;;5.63;1.63;;;7.10;99.90;;;;;;4981146;28;20260;-79
2023/01/05 05:08:03;;;;;;;9.07;1.60;;;7.10;99.90;;;;;;4988669;28;20224;-80
2023/01/05 05:10:30;;;;;;;11.03;2.00;;;7.00;99.90;;;;;;4971959;28;20556;-81
2023/01/05 05:12:57;;;;;;;8.50;1.37;;;7.00;99.90;;;;;;4968404;28;20231;-80
2023/01/05 05:15:25;;;;;;;6.67;1.60;;;7.00;99.90;;;;;;4974078;28;20234;-80
2023/01/05 05:17:53;;;;;;;7.67;1.97;;;7.00;99.90;;;;;;4965345;28;20678;-79
2023/01/05 05:20:20;;;;;;;6.87;1.80;;;7.00;99.90;;;;;;4985172;28;20249;-80
2023/01/05 05:22:48;;;;;;;10.63;1.60;;;7.00;99.90;;;;;;4980666;28;20215;-84
2023/01/05 05:25:18;;;;;;;7.37;2.13;;;7.00;99.90;;;;;;4968462;28;20275;-83
2023/01/05 05:27:47;;;;;;;10.43;1.70;;;7.00;99.90;;;;;;4967900;28;20232;-84
2023/01/05 05:30:14;;;;;;;7.83;1.63;;;7.00;99.90;;;;;;4982150;28;20249;-85
2023/01/05 05:32:42;;;;;;;5.60;1.40;;;7.10;99.90;;;;;;4965586;28;20236;-82
2023/01/05 05:35:09;;;;;;;7.97;1.93;;;7.00;99.90;;;;;;4980217;28;20281;-82
2023/01/05 05:37:36;;;;;;;8.13;1.90;;;7.10;99.90;;;;;;4966895;28;20311;-81
2023/01/05 05:40:04;;;;;;;9.70;1.87;;;7.10;99.90;;;;;;4966081;28;20299;-84
2023/01/05 05:42:30;;;;;;;7.20;1.40;;;7.10;99.90;;;;;;4974082;28;20219;-83
2023/01/05 05:44:57;;;;;;;5.83;1.53;;;7.10;99.90;;;;;;4967206;28;20231;-83
2023/01/05 05:47:24;;;;;;;10.50;2.40;;;7.10;99.90;;;;;;4958984;28;20238;-83
2023/01/05 05:49:52;;;;;;;9.27;1.50;;;7.10;99.90;;;;;;4967255;28;20350;-83
2023/01/05 05:52:19;;;;;;;6.70;2.10;;;7.10;99.90;;;;;;4977917;28;20312;-83
2023/01/05 05:54:46;;;;;;;7.47;1.73;;;7.20;99.90;;;;;;4964872;28;20750;-82
2023/01/05 05:57:12;;;;;;;7.37;1.30;;;7.10;99.90;;;;;;4962404;28;20238;-83
2023/01/05 05:59:39;;;;;;;8.70;2.37;;;7.20;99.90;;;;;;4980883;28;20572;-83
2023/01/05 06:02:06;;;;;;;10.83;1.97;;;7.20;99.90;;;;;;4979028;28;20406;-83
2023/01/05 06:04:33;;;;;;;12.97;1.80;;;7.10;99.90;;;;;;4959588;28;20234;-83
2023/01/05 06:07:01;;;;;;;13.10;2.07;;;7.20;99.90;;;;;;4965488;28;20314;-83
2023/01/05 06:09:27;;;;;;;7.27;1.90;;;7.20;99.90;;;;;;4981471;28;20223;-84
2023/01/05 06:11:54;;;;;;;8.27;2.10;;;7.20;99.90;;;;;;4980542;28;20564;-83
2023/01/05 06:14:21;;;;;;;7.50;1.57;;;7.10;99.90;;;;;;4964743;28;20218;-82
2023/01/05 06:16:48;;;;;;;9.40;1.63;;;7.20;99.90;;;;;;4975656;28;20570;-80
2023/01/05 06:19:15;;;;;;;5.97;1.43;;;7.30;99.90;;;;;;4981824;28;20223;-82
2023/01/05 06:21:42;;;;;;;9.93;1.90;;;7.30;99.90;;;;;;4957977;28;20277;-81
2023/01/05 06:24:10;;;;;;;7.90;1.83;;;7.30;99.90;;;;;;4970259;28;20426;-82
2023/01/05 06:26:36;;;;;;;7.60;1.83;;;7.30;99.90;;;;;;4970762;28;20306;-82
2023/01/05 06:29:03;;;;;;;6.83;1.53;;;7.30;99.90;;;;;;4965104;28;20640;-82
2023/01/05 06:31:30;;;;;;;7.87;1.80;;;7.30;99.90;;;;;;4967923;28;20318;-82
2023/01/05 06:33:57;;;;;;;7.50;2.37;;;7.30;99.90;;;;;;4967385;28;20831;-82
2023/01/05 06:36:23;;;;;;;12.67;2.03;;;7.30;99.90;;;;;;4974034;28;20231;-82
2023/01/05 06:38:50;;;;;;;7.40;1.77;;;7.30;99.90;;;;;;4985055;28;20270;-82
2023/01/05 06:41:18;;;;;;;10.47;2.27;;;7.30;99.90;;;;;;4969477;28;20294;-81
2023/01/05 06:43:45;;;;;;;12.37;1.67;;;7.30;99.90;;;;;;4973198;28;20670;-83
2023/01/05 06:46:12;;;;;;;9.27;1.97;;;7.30;99.90;;;;;;4981435;28;20229;-82
2023/01/05 06:48:39;;;;;;;12.27;2.10;;;7.30;99.90;;;;;;4983693;28;20236;-83
2023/01/05 06:51:05;;;;;;;10.53;1.97;;;7.40;99.90;;;;;;4969416;28;20319;-83
2023/01/05 06:53:32;;;;;;;7.97;1.80;;;7.30;99.90;;;;;;4975479;28;20226;-84
2023/01/05 06:55:59;;;;;;;13.37;2.40;;;7.30;99.90;;;;;;4983062;28;20318;-82
2023/01/05 06:58:27;;;;;;;9.80;2.00;;;7.40;99.90;;;;;;4969923;28;20248;-83
2023/01/05 07:00:56;;;;;;;10.17;2.40;;;7.40;99.90;;;;;;4985698;28;20226;-83
2023/01/05 07:03:23;;;;;;;8.90;2.10;;;7.40;99.90;;;;;;4977398;28;20246;-82
2023/01/05 07:05:53;;;;;;;9.73;1.97;;;7.30;99.90;;;;;;4982652;28;20230;-82
2023/01/05 07:08:19;;;;;;;9.13;1.93;;;7.30;99.90;;;;;;4985015;28;20232;-82
2023/01/05 07:10:49;;;;;;;10.03;1.83;;;7.30;99.90;;;;;;4983458;28;20220;-82
2023/01/05 07:13:16;;;;;;;9.03;1.90;;;7.30;99.90;;;;;;4963599;28;21033;-83
2023/01/05 07:15:44;;;;;;;15.93;2.07;;;7.30;99.90;;;;;;4967540;28;20714;-84
2023/01/05 07:18:11;;;;;;;8.83;1.87;;;7.30;99.90;;;;;;4982486;28;20850;-84
2023/01/05 07:20:38;;;;;;;10.23;2.00;;;7.30;99.90;;;;;;4961955;28;20249;-83
2023/01/05 07:23:04;;;;;;;7.27;2.00;;;7.40;99.90;;;;;;4983869;28;20244;-82
2023/01/05 07:25:32;;;;;;;16.10;2.97;;;7.30;99.90;;;;;;4971255;28;20237;-84
2023/01/05 07:27:59;;;;;;;6.07;2.07;;;7.30;99.90;;;;;;4980391;28;20227;-83
2023/01/05 07:30:25;;;;;;;13.20;2.23;;;7.40;99.90;;;;;;4986901;28;20229;-83
2023/01/05 07:32:57;;;;;;;12.13;2.40;;;7.40;99.90;;;;;;4984582;28;20601;-83
2023/01/05 07:35:24;;;;;;;12.63;2.33;;;7.40;99.90;;;;;;4983185;28;20243;-83
2023/01/05 07:37:51;;;;;;;11.70;1.90;;;7.40;99.90;;;;;;4981010;28;20230;-84
2023/01/05 07:40:19;;;;;;;8.87;2.17;;;7.40;99.90;;;;;;4983665;28;20268;-84
2023/01/05 07:42:50;;;;;;;8.90;2.23;;;7.40;99.90;;;;;;4978954;28;20546;-83
2023/01/05 07:45:17;;;;;;;9.77;2.13;;;7.40;99.90;;;;;;4961888;28;20226;-83
2023/01/05 07:47:44;;;;;;;9.27;2.03;;;7.40;99.90;;;;;;4983051;28;20302;-83
2023/01/05 07:50:12;;;;;;;8.47;1.87;;;7.40;99.90;;;;;;4985422;28;20315;-83
2023/01/05 07:52:39;;;;;;;9.87;2.00;;;7.40;99.90;;;;;;4986868;28;20243;-83
2023/01/05 07:55:07;;;;;;;11.50;2.20;;;7.40;99.90;;;;;;4987821;28;20228;-82
2023/01/05 07:57:34;;;;;;;12.03;2.23;;;7.40;99.90;;;;;;4984874;28;20236;-82
2023/01/05 08:00:01;;;;;;;5.67;2.00;;;7.40;99.90;;;;;;4985433;28;20395;-82
2023/01/05 08:02:27;;;;;;;9.23;2.20;;;7.40;99.90;;;;;;4972647;28;20247;-82
2023/01/05 08:04:54;;;;;;;8.37;1.87;;;7.50;99.90;;;;;;4976193;28;20240;-83
2023/01/05 08:07:22;;;;;;;5.23;1.60;;;7.50;99.90;;;;;;4974205;28;20258;-82
2023/01/05 08:13:58;;;;;;;12.13;2.40;;;7.40;99.90;;;;;;4987882;28;20302;-81
2023/01/05 08:15:20;;;;;;;9.27;2.20;;;7.40;99.90;;;;;;4980811;28;20318;-80
2023/01/05 08:17:49;;;;;;;9.07;2.53;;;7.40;99.90;;;;;;4974268;28;20239;-80
2023/01/05 08:20:17;;;;;;;10.13;2.30;;;7.40;99.90;;;;;;4987121;28;20274;-80
2023/01/05 08:22:50;;;;;;;11.17;2.27;;;7.40;99.90;;;;;;4985077;28;20228;-81
2023/01/05 08:25:16;;;;;;;14.13;2.90;;;7.40;99.90;;;;;;4986856;28;20233;-81
2023/01/05 08:27:43;;;;;;;10.47;2.70;;;7.40;99.90;;;;;;4970173;28;20230;-81
2023/01/05 08:30:11;;;;;;;14.90;2.70;;;7.40;99.90;;;;;;4980584;28;20705;-81
2023/01/05 08:32:38;;;;;;;9.87;2.17;;;7.50;99.90;;;;;;4985430;28;20226;-81
2023/01/05 08:35:05;;;;;;;11.47;2.30;;;7.50;99.90;;;;;;4968878;28;20635;-81
2023/01/05 08:37:32;;;;;;;13.13;2.53;;;7.50;99.90;;;;;;4961524;28;21161;-81
2023/01/05 08:40:00;;;;;;;14.50;2.60;;;7.50;99.90;;;;;;4952893;28;20748;-81
2023/01/05 08:42:27;;;;;;;10.00;2.53;;;7.50;99.90;;;;;;4965064;28;20228;-81
2023/01/05 08:44:55;;;;;;;9.80;2.43;;;7.50;99.90;;;;;;4972213;28;20425;-81
2023/01/05 08:47:24;;;;;;;13.40;2.43;;;7.40;99.90;;;;;;4981674;28;20220;-83
2023/01/05 08:49:51;;;;;;;13.30;2.63;;;7.40;99.90;;;;;;4968334;28;20594;-81
2023/01/05 08:52:18;;;;;;;11.93;2.47;;;7.40;99.90;;;;;;4973430;28;20242;-82
2023/01/05 08:54:47;;;;;;;11.67;2.63;;;7.40;99.90;;;;;;4979981;28;20239;-81
2023/01/05 08:57:15;;;;;;;12.10;2.97;;;7.40;99.90;;;;;;4986072;28;20212;-83
2023/01/05 08:59:42;;;;;;;8.73;1.90;;;7.30;99.90;;;;;;4987700;28;20232;-84
2023/01/05 09:02:11;;;;;;;9.73;2.37;;;7.40;99.90;;;;;;4980880;28;20230;-81
2023/01/05 09:04:37;;;;;;;9.73;2.20;;;7.30;99.90;;;;;;4989516;28;20302;-80
2023/01/05 09:07:04;;;;;;;7.87;2.03;;;7.30;99.90;;;;;;4988600;28;20703;-80
2023/01/05 09:09:31;;;;;;;10.57;1.93;;;7.30;99.90;;;;;;4989629;28;20248;-81
2023/01/05 09:11:57;;;;;;;11.63;2.37;;;7.30;99.90;;;;;;4974954;28;20307;-80
2023/01/05 09:14:26;;;;;;;10.73;2.40;;;7.20;99.90;;;;;;4983683;28;20232;-81
2023/01/05 09:16:52;;;;;;;13.93;2.63;;;7.20;99.90;;;;;;4976667;28;20918;-80
2023/01/05 09:19:19;;;;;;;11.77;2.40;;;7.20;99.90;;;;;;4977541;28;20314;-80
2023/01/05 09:21:46;;;;;;;6.73;2.00;;;7.20;99.90;;;;;;4979657;28;20242;-81
2023/01/05 09:24:12;;;;;;;10.03;2.30;;;7.20;99.90;;;;;;4978497;28;20223;-80
2023/01/05 09:26:40;;;;;;;9.27;2.20;;;7.20;99.90;;;;;;4985747;28;20243;-80
2023/01/05 09:29:06;;;;;;;11.30;1.93;;;7.20;99.90;;;;;;4983188;28;20228;-82
2023/01/05 09:31:34;;;;;;;9.73;2.27;;;7.10;99.90;;;;;;4957140;28;20237;-83
2023/01/05 09:34:01;;;;;;;14.57;2.30;;;7.20;99.90;;;;;;4971546;28;20917;-81
2023/01/05 09:36:28;;;;;;;8.73;2.00;;;7.20;99.90;;;;;;4951979;28;20414;-81
2023/01/05 09:38:56;;;;;;;15.67;2.43;;;7.20;99.90;;;;;;4970002;28;20254;-83
2023/01/05 09:41:26;;;;;;;9.57;2.37;;;7.20;99.90;;;;;;4979658;28;20708;-83
2023/01/05 09:43:57;;;;;;;13.07;2.30;;;7.20;99.90;;;;;;4966755;28;20266;-82
2023/01/05 09:46:28;;;;;;;11.60;2.50;;;7.30;99.90;;;;;;4983476;28;20320;-81
2023/01/05 09:49:01;;;;;;;10.23;1.83;;;7.50;99.90;;;;;;4990099;28;20220;-82
2023/01/05 09:51:28;;;;;;;13.37;2.20;;;7.60;99.90;;;;;;4988111;28;20231;-82
2023/01/05 09:53:55;;;;;;;7.07;1.80;;;7.80;99.90;;;;;;4970699;28;20234;-83
2023/01/05 09:56:28;;;;;;;11.80;2.77;;;7.90;99.90;;;;;;4965125;28;20226;-82
2023/01/05 09:59:04;;;;;;;9.30;2.17;;;7.90;99.90;;;;;;4971073;28;20323;-83
2023/01/05 10:01:36;;;;;;;11.83;2.53;;;7.80;99.90;;;;;;4976213;28;20716;-85
2023/01/05 10:04:11;;;;;;;11.10;2.73;;;7.80;99.90;;;;;;4983885;28;20317;-84
2023/01/05 10:06:43;;;;;;;12.50;3.03;;;7.80;99.90;;;;;;4974925;28;20226;-84
2023/01/05 10:09:15;;;;;;;11.93;2.60;;;7.70;99.90;;;;;;4973330;28;20600;-84
2023/01/05 10:14:39;;;;;;;10.80;2.40;;;7.70;99.90;;;;;;4988570;28;20222;-84
2023/01/05 10:17:14;;;;;;;8.30;2.47;;;7.80;99.90;;;;;;4976242;28;20274;-84
2023/01/05 10:19:42;;;;;;;15.70;2.53;;;7.90;99.90;;;;;;4992637;28;20909;-85
2023/01/05 10:22:22;;;;;;;11.93;2.73;;;7.90;99.90;;;;;;4974455;28;20218;-85
2023/01/05 10:24:55;;;;;;;11.33;2.80;;;8.00;99.90;;;;;;4976024;28;20352;-83
2023/01/05 10:27:26;;;;;;;14.10;2.30;;;8.00;99.90;;;;;;4990078;28;20858;-84
2023/01/05 10:29:59;;;;;;;12.03;2.60;;;8.00;99.90;;;;;;4969111;28;20232;-84
2023/01/05 10:32:34;;;;;;;8.67;2.60;;;8.00;99.90;;;;;;4979662;28;20235;-84
2023/01/05 10:35:15;;;;;;;9.00;2.20;;;8.10;99.90;;;;;;4969901;28;20835;-83
2023/01/05 10:37:56;;;;;;;9.93;2.23;;;8.10;99.90;;;;;;4988098;28;20244;-84
2023/01/05 10:40:33;;;;;;;8.80;1.77;;;8.10;99.90;;;;;;4975338;28;20223;-83
2023/01/05 10:43:14;;;;;;;9.03;2.40;;;8.10;99.90;;;;;;4979104;28;20505;-83
2023/01/05 10:45:41;;;;;;;8.47;1.93;;;8.10;99.90;;;;;;4967186;28;20867;-84
2023/01/05 10:48:13;;;;;;;12.90;1.80;;;8.10;99.90;;;;;;4989292;28;20279;-84
2023/01/05 10:50:43;;;;;;;9.23;1.57;;;8.00;99.90;;;;;;4989189;28;20728;-84
2023/01/05 10:53:12;;;;;;;14.60;4.30;;;7.90;99.90;;;;;;4984550;28;20735;-84
2023/01/05 10:55:48;;;;;;;8.47;2.13;;;7.80;99.90;;;;;;4969578;28;20225;-83
2023/01/05 10:58:25;;;;;;;6.83;1.77;;;7.70;99.90;;;;;;4981696;28;20232;-83
2023/01/05 11:00:55;;;;;;;9.23;2.07;;;7.60;99.90;;;;;;4986718;28;20233;-84
2023/01/05 11:03:32;;;;;;;6.60;1.87;;;7.50;99.90;;;;;;4967278;28;20896;-84
2023/01/05 11:06:00;;;;;;;11.03;2.10;;;7.50;99.90;;;;;;4965404;28;20222;-84
2023/01/05 11:08:29;;;;;;;10.80;2.50;;;7.50;99.90;;;;;;4968122;28;20316;-84
2023/01/05 11:10:58;;;;;;;9.23;2.10;;;7.60;99.90;;;;;;4981067;28;20232;-84
2023/01/05 11:13:34;;;;;;;9.37;2.23;;;7.60;99.90;;;;;;4981796;28;20233;-83
2023/01/05 11:16:08;;;;;;;10.80;2.60;;;7.80;99.90;;;;;;4984089;28;20330;-84
2023/01/05 11:18:40;;;;;;;11.47;2.97;;;7.90;99.90;;;;;;4966804;28;20226;-84
2023/01/05 11:21:11;;;;;;;14.70;3.03;;;8.00;99.90;;;;;;4983143;28;20219;-84
2023/01/05 11:23:39;;;;;;;11.87;2.70;;;8.10;99.90;;;;;;4967262;28;20238;-84
2023/01/05 11:26:29;;;;;;;8.60;2.23;;;8.20;99.90;;;;;;4966604;28;20229;-84
2023/01/05 11:29:10;;;;;;;8.63;2.07;;;8.20;99.90;;;;;;4980099;28;20304;-83
2023/01/05 11:31:41;;;;;;;12.63;3.57;;;8.20;99.90;;;;;;4984793;28;20321;-83
2023/01/05 11:34:19;;;;;;;6.57;2.03;;;8.20;99.90;;;;;;4987255;28;20308;-83
2023/01/05 11:36:54;;;;;;;8.33;2.10;;;8.20;99.90;;;;;;4970979;28;20223;-83
2023/01/05 11:39:28;;;;;;;9.50;2.37;;;8.20;99.90;;;;;;4978425;28;20679;-84
2023/01/05 11:42:12;;;;;;;12.87;2.53;;;8.10;99.90;;;;;;4984758;28;20221;-84
2023/01/05 11:44:41;;;;;;;11.20;1.97;;;8.10;99.90;;;;;;4979186;28;20232;-83
2023/01/05 11:47:09;;;;;;;13.03;2.77;;;8.10;99.90;;;;;;4978017;28;20240;-84
2023/01/05 11:49:38;;;;;;;7.70;1.97;;;8.10;99.90;;;;;;4985228;28;20892;-84
2023/01/05 11:52:25;;;;;;;7.20;1.90;;;8.10;99.90;;;;;;4961594;28;20226;-84
2023/01/05 11:54:52;;;;;;;9.47;1.83;;;8.10;99.90;;;;;;4982083;28;20293;-83
2023/01/05 11:57:21;;;;;;;8.40;2.17;;;8.10;99.90;;;;;;4983726;28;20234;-84
2023/01/05 11:59:49;;;;;;;9.33;1.93;;;8.10;99.90;;;;;;4971511;28;20692;-83
2023/01/05 12:02:49;;;;;;;7.80;1.80;;;8.20;99.90;;;;;;4974458;28;20239;-86
2023/01/05 12:05:27;;;;;;;9.20;2.07;;;8.20;99.90;;;;;;4967332;28;20709;-83
2023/01/05 12:08:00;;;;;;;6.33;2.20;;;8.20;99.90;;;;;;4974213;28;20336;-83
2023/01/05 12:10:50;;;;;;;12.63;3.07;;;8.30;99.90;;;;;;4982163;28;20229;-83
2023/01/05 12:13:37;;;;;;;6.53;1.97;;;8.30;99.90;;;;;;4987067;28;20316;-84
2023/01/05 12:16:16;;;;;;;7.30;2.13;;;8.30;99.90;;;;;;4956215;28;20267;-83
2023/01/05 12:19:03;;;;;;;6.97;2.27;;;8.40;99.90;;;;;;4984529;28;20709;-84
2023/01/05 12:21:39;;;;;;;8.73;2.03;;;8.40;99.90;;;;;;4986453;28;20256;-84
2023/01/05 12:24:50;;;;;;;11.93;2.47;;;8.40;99.90;;;;;;4984644;28;20214;-83
2023/01/05 12:27:27;;;;;;;9.10;2.03;;;8.40;99.90;;;;;;4966076;28;20218;-83
2023/01/05 12:30:15;;;;;;;9.73;1.97;;;8.30;99.90;;;;;;4979889;28;20237;-84
2023/01/05 12:32:58;;;;;;;14.90;2.27;;;8.40;99.90;;;;;;4975967;28;20260;-84
2023/01/05 12:35:49;;;;;;;7.27;2.10;;;8.40;99.90;;;;;;4982746;28;20706;-83
2023/01/05 12:38:27;;;;;;;8.13;1.87;;;8.40;99.90;;;;;;4969834;28;20232;-84
2023/01/05 12:41:21;;;;;;;7.03;1.90;;;8.40;99.90;;;;;;4987378;28;20236;-84
2023/01/05 12:44:02;;;;;;;6.07;1.87;;;8.40;99.90;;;;;;4966891;28;20908;-83
2023/01/05 12:46:44;;;;;;;5.10;1.53;;;8.40;99.90;;;;;;4976632;28;20223;-84
2023/01/05 12:49:14;;;;;;;4.63;1.80;;;8.40;99.90;;;;;;4989835;28;20236;-83
2023/01/05 12:51:45;;;;;;;7.43;1.93;;;8.40;99.90;;;;;;4973062;28;20228;-83
2023/01/05 12:54:22;;;;;;;7.43;1.70;;;8.40;99.90;;;;;;4989801;28;20309;-83
2023/01/05 12:56:58;;;;;;;8.20;1.50;;;8.40;99.90;;;;;;4981527;28;20232;-83
2023/01/05 12:59:31;;;;;;;10.03;1.87;;;8.40;99.90;;;;;;4989255;28;20425;-83
2023/01/05 13:02:04;;;;;;;8.23;1.40;;;8.40;99.90;;;;;;4983815;28;20238;-83
2023/01/05 13:04:40;;;;;;;4.90;1.20;;;8.30;99.90;;;;;;4976683;28;20229;-83
2023/01/05 13:07:09;;;;;;;5.20;1.30;;;8.30;99.90;;;;;;4989851;28;21010;-83
2023/01/05 13:09:37;;;;;;;4.50;1.10;;;8.20;99.90;;;;;;4990798;28;20222;-83
2023/01/05 13:12:08;;;;;;;6.87;1.20;;;8.20;99.90;;;;;;4990674;28;20236;-83
2023/01/05 13:14:37;;;;;;;6.20;1.20;;;8.10;99.90;;;;;;4992393;28;20317;-84
2023/01/05 13:17:11;;;;;;;11.37;1.70;;;8.10;99.90;;;;;;4972440;28;20388;-84
2023/01/05 13:19:44;;;;;;;5.03;1.10;;;8.00;99.90;;;;;;4993524;28;20231;-84
2023/01/05 13:22:18;;;;;;;5.37;1.20;;;8.00;99.90;;;;;;4974571;28;20230;-83
2023/01/05 13:24:51;;;;;;;3.80;1.00;;;8.00;99.90;;;;;;4981653;28;20256;-84
2023/01/05 13:27:20;;;;;;;3.37;0.83;;;7.90;99.90;;;;;;4964596;28;20253;-84
2023/01/05 13:29:53;;;;;;;3.50;0.90;;;7.90;99.90;;;;;;4990922;28;20263;-83
2023/01/05 13:32:38;;;;;;;4.53;1.33;;;7.90;99.90;;;;;;4968561;28;20718;-83
2023/01/05 13:35:22;;;;;;;2.93;0.80;;;7.90;99.90;;;;;;4991819;28;20233;-84
2023/01/05 13:38:04;;;;;;;2.13;0.70;;;7.90;99.90;;;;;;4993141;28;20231;-83
2023/01/05 13:40:56;;;;;;;6.10;0.90;;;7.80;99.90;;;;;;4993689;28;20907;-83
2023/01/05 13:43:52;;;;;;;3.30;0.73;;;7.80;99.90;;;;;;4964773;28;20284;-85
2023/01/05 13:46:44;;;;;;;4.40;0.70;;;7.70;99.90;;;;;;4974398;28;20234;-84
2023/01/05 13:49:32;;;;;;;4.03;0.90;;;7.70;99.90;;;;;;4964057;28;20221;-83
2023/01/05 13:52:02;;;;;;;2.80;1.00;;;7.70;99.90;;;;;;4977651;28;20716;-84
2023/01/05 13:54:39;;;;;;;2.50;1.07;;;7.70;99.90;;;;;;4974650;28;20233;-85